createdAt,value
2018-02-14T00:00:50.762Z,99.99
2018-02-14T00:02:12.928Z,99.99
2018-02-14T00:03:34.798Z,99.99
2018-02-14T00:04:56.640Z,99.99
2018-02-14T00:06:18.540Z,99.99
2018-02-14T00:07:40.150Z,99.99
2018-02-14T00:09:01.805Z,99.99
2018-02-14T00:10:24.079Z,99.99
2018-02-14T00:11:45.964Z,99.99
2018-02-14T00:13:07.820Z,99.99
2018-02-14T00:14:29.520Z,99.99
2018-02-14T00:15:51.102Z,99.99
2018-02-14T00:17:12.964Z,99.99
2018-02-14T00:18:35.092Z,99.99
2018-02-14T00:19:57.228Z,99.99
2018-02-14T00:21:19.100Z,99.99
2018-02-14T00:22:41.021Z,99.99
2018-02-14T00:24:03.245Z,99.99
2018-02-14T00:25:25.404Z,99.99
2018-02-14T00:26:47.282Z,99.99
2018-02-14T00:28:09.411Z,99.99
2018-02-14T00:29:31.644Z,99.99
2018-02-14T00:30:53.823Z,99.99
2018-02-14T00:32:15.970Z,99.99
2018-02-14T00:33:37.569Z,99.99
2018-02-14T00:34:59.048Z,99.99
2018-02-14T00:36:21.473Z,99.99
2018-02-14T00:37:43.379Z,99.99
2018-02-14T00:39:05.303Z,99.99
2018-02-14T00:40:26.642Z,99.99
2018-02-14T00:41:49.090Z,99.99
2018-02-14T00:43:10.412Z,99.99
2018-02-14T00:44:32.560Z,99.99
2018-02-14T00:45:53.643Z,99.99
2018-02-14T00:47:16.181Z,99.99
2018-02-14T00:48:37.870Z,99.99
2018-02-14T00:49:59.820Z,99.99
2018-02-14T00:51:21.671Z,99.99
2018-02-14T00:52:43.878Z,99.99
2018-02-14T00:54:06.161Z,99.99
2018-02-14T00:55:28.037Z,99.99
2018-02-14T00:56:49.757Z,99.99
2018-02-14T00:58:11.186Z,99.99
2018-02-14T00:59:33.216Z,99.99
2018-02-14T01:00:55.094Z,99.99
2018-02-14T01:02:16.722Z,99.99
2018-02-14T01:03:40.442Z,99.99
2018-02-14T01:05:01.805Z,99.99
2018-02-14T01:06:23.682Z,99.99
2018-02-14T01:07:45.787Z,99.99
2018-02-14T01:09:07.848Z,99.99
2018-02-14T01:10:29.897Z,99.99
2018-02-14T01:11:52.001Z,99.99
2018-02-14T01:13:13.883Z,99.99
2018-02-14T01:14:35.745Z,99.99
2018-02-14T01:15:57.339Z,99.99
2018-02-14T01:17:19.246Z,99.99
2018-02-14T01:18:41.133Z,99.99
2018-02-14T01:20:03.143Z,99.99
2018-02-14T01:21:24.493Z,99.99
2018-02-14T01:22:46.101Z,99.99
2018-02-14T01:24:07.941Z,99.99
2018-02-14T01:25:29.861Z,99.99
2018-02-14T01:26:51.205Z,99.99
2018-02-14T01:28:13.309Z,99.99
2018-02-14T01:29:35.160Z,99.99
2018-02-14T01:30:57.642Z,99.99
2018-02-14T01:32:19.361Z,99.99
2018-02-14T01:33:40.992Z,99.99
2018-02-14T01:35:02.601Z,99.99
2018-02-14T01:36:24.769Z,99.99
2018-02-14T01:37:46.372Z,99.99
2018-02-14T01:39:08.027Z,99.99
2018-02-14T01:40:29.611Z,99.99
2018-02-14T01:41:52.152Z,99.99
2018-02-14T01:43:14.013Z,99.99
2018-02-14T01:44:35.340Z,99.99
2018-02-14T01:45:56.923Z,99.99
2018-02-14T01:47:18.941Z,99.99
2018-02-14T01:48:40.011Z,99.99
2018-02-14T01:50:01.658Z,99.99
2018-02-14T01:51:23.532Z,99.99
2018-02-14T01:52:45.513Z,99.99
2018-02-14T01:54:07.623Z,99.99
2018-02-14T01:55:29.284Z,99.99
2018-02-14T01:56:50.871Z,99.99
2018-02-14T01:58:12.834Z,99.99
2018-02-14T01:59:34.730Z,99.99
2018-02-14T02:00:56.825Z,99.99
2018-02-14T02:02:18.434Z,99.99
2018-02-14T02:03:40.022Z,99.99
2018-02-14T02:05:01.611Z,99.99
2018-02-14T02:06:23.629Z,99.99
2018-02-14T02:07:45.482Z,99.99
2018-02-14T02:09:07.646Z,99.99
2018-02-14T02:10:29.778Z,99.99
2018-02-14T02:11:51.908Z,99.99
2018-02-14T02:13:13.562Z,99.99
2018-02-14T02:14:35.763Z,99.99
2018-02-14T02:15:57.345Z,99.99
2018-02-14T02:17:19.205Z,99.99
2018-02-14T02:18:40.811Z,99.99
2018-02-14T02:20:02.670Z,99.99
2018-02-14T02:21:24.000Z,99.99
2018-02-14T02:22:45.854Z,99.99
2018-02-14T02:24:07.482Z,99.99
2018-02-14T02:25:29.103Z,99.99
2018-02-14T02:26:51.216Z,99.99
2018-02-14T02:28:13.338Z,99.99
2018-02-14T02:29:35.218Z,99.99
2018-02-14T02:30:57.396Z,99.99
2018-02-14T02:32:19.249Z,99.99
2018-02-14T02:33:40.582Z,99.99
2018-02-14T02:35:02.452Z,99.99
2018-02-14T02:36:24.411Z,99.99
2018-02-14T02:37:46.252Z,99.99
2018-02-14T02:39:08.121Z,99.99
2018-02-14T02:40:29.269Z,99.99
2018-02-14T02:41:51.239Z,99.99
2018-02-14T02:43:13.133Z,99.99
2018-02-14T02:44:34.732Z,99.99
2018-02-14T02:45:56.611Z,99.99
2018-02-14T02:47:20.420Z,99.99
2018-02-14T02:48:42.021Z,99.99
2018-02-14T02:50:03.638Z,99.99
2018-02-14T02:51:25.522Z,99.99
2018-02-14T02:52:47.761Z,99.99
2018-02-14T02:54:09.402Z,99.99
2018-02-14T02:55:31.631Z,99.99
2018-02-14T02:56:53.776Z,99.99
2018-02-14T02:58:15.801Z,99.99
2018-02-14T02:59:37.394Z,99.99
2018-02-14T03:00:59.262Z,99.99
2018-02-14T03:02:20.861Z,99.99
2018-02-14T03:03:43.062Z,99.99
2018-02-14T03:05:04.940Z,99.99
2018-02-14T03:06:26.792Z,99.99
2018-02-14T03:07:48.396Z,99.99
2018-02-14T03:09:10.832Z,99.99
2018-02-14T03:10:32.714Z,99.99
2018-02-14T03:11:54.836Z,99.99
2018-02-14T03:13:16.431Z,99.99
2018-02-14T03:14:38.900Z,99.99
2018-02-14T03:16:00.272Z,99.99
2018-02-14T03:17:22.401Z,99.99
2018-02-14T03:18:43.831Z,99.99
2018-02-14T03:20:05.410Z,99.99
2018-02-14T03:21:27.263Z,99.99
2018-02-14T03:22:49.432Z,99.99
2018-02-14T03:24:11.292Z,99.99
2018-02-14T03:25:33.432Z,99.99
2018-02-14T03:26:55.305Z,99.99
2018-02-14T03:28:17.862Z,99.99
2018-02-14T03:29:39.783Z,99.99
2018-02-14T03:31:02.053Z,99.99
2018-02-14T03:32:24.203Z,99.99
2018-02-14T03:33:45.259Z,99.99
2018-02-14T03:35:07.393Z,99.99
2018-02-14T03:36:29.636Z,99.99
2018-02-14T03:37:51.631Z,99.99
2018-02-14T03:39:13.503Z,99.99
2018-02-14T03:40:34.841Z,99.99
2018-02-14T03:41:57.358Z,99.99
2018-02-14T03:43:19.498Z,99.99
2018-02-14T03:44:41.336Z,99.99
2018-02-14T03:46:03.605Z,99.99
2018-02-14T03:47:25.576Z,99.99
2018-02-14T03:48:47.178Z,99.99
2018-02-14T03:50:08.776Z,99.99
2018-02-14T03:51:30.362Z,99.99
2018-02-14T03:52:52.533Z,99.99
2018-02-14T03:54:14.122Z,99.99
2018-02-14T03:55:35.724Z,99.99
2018-02-14T03:56:57.067Z,99.99
2018-02-14T03:58:19.544Z,99.99
2018-02-14T03:59:41.491Z,99.99
2018-02-14T04:01:03.435Z,99.99
2018-02-14T04:02:25.288Z,99.99
2018-02-14T04:03:46.959Z,99.99
2018-02-14T04:05:08.894Z,99.99
2018-02-14T04:06:30.604Z,99.99
2018-02-14T04:07:52.712Z,99.99
2018-02-14T04:09:14.616Z,99.99
2018-02-14T04:10:36.484Z,99.99
2018-02-14T04:11:58.152Z,99.99
2018-02-14T04:13:20.021Z,99.99
2018-02-14T04:14:42.241Z,99.99
2018-02-14T04:16:03.848Z,99.99
2018-02-14T04:17:26.082Z,99.99
2018-02-14T04:18:48.340Z,99.99
2018-02-14T04:20:10.083Z,99.99
2018-02-14T04:21:31.965Z,99.99
2018-02-14T04:22:53.840Z,99.99
2018-02-14T04:24:15.952Z,99.99
2018-02-14T04:25:37.835Z,99.99
2018-02-14T04:27:00.082Z,99.99
2018-02-14T04:28:22.120Z,99.99
2018-02-14T04:29:43.572Z,99.99
2018-02-14T04:31:05.670Z,99.99
2018-02-14T04:32:27.870Z,99.99
2018-02-14T04:33:49.737Z,99.99
2018-02-14T04:35:11.722Z,99.99
2018-02-14T04:36:33.581Z,99.99
2018-02-14T04:37:54.953Z,99.99
2018-02-14T04:39:16.822Z,99.99
2018-02-14T04:40:38.705Z,99.99
2018-02-14T04:42:01.067Z,99.99
2018-02-14T04:43:23.290Z,99.99
2018-02-14T04:44:44.963Z,99.99
2018-02-14T04:46:06.831Z,99.99
2018-02-14T04:47:28.699Z,99.99
2018-02-14T04:48:50.547Z,99.99
2018-02-14T04:50:12.741Z,99.99
2018-02-14T04:51:34.339Z,99.99
2018-02-14T04:52:56.203Z,99.99
2018-02-14T04:54:17.565Z,99.99
2018-02-14T04:55:39.140Z,99.99
2018-02-14T04:57:00.994Z,99.99
2018-02-14T04:58:22.853Z,99.99
2018-02-14T04:59:44.447Z,99.99
2018-02-14T05:01:06.631Z,99.99
2018-02-14T05:02:28.486Z,99.99
2018-02-14T05:03:50.092Z,99.99
2018-02-14T05:05:11.433Z,99.99
2018-02-14T05:06:33.542Z,99.99
2018-02-14T05:07:55.402Z,99.99
2018-02-14T05:09:17.012Z,99.99
2018-02-14T05:10:39.382Z,99.99
2018-02-14T05:12:01.045Z,99.99
2018-02-14T05:13:23.193Z,99.99
2018-02-14T05:14:44.792Z,99.99
2018-02-14T05:16:06.369Z,99.99
2018-02-14T05:17:28.472Z,99.99
2018-02-14T05:18:50.632Z,99.99
2018-02-14T05:20:12.518Z,99.99
2018-02-14T05:21:34.372Z,99.99
2018-02-14T05:22:56.492Z,99.99
2018-02-14T05:24:18.375Z,99.99
2018-02-14T05:25:40.481Z,99.99
2018-02-14T05:27:02.361Z,99.99
2018-02-14T05:28:24.218Z,99.99
2018-02-14T05:29:46.076Z,99.99
2018-02-14T05:31:07.941Z,99.99
2018-02-14T05:32:29.798Z,99.99
2018-02-14T05:33:51.393Z,99.99
2018-02-14T05:35:13.253Z,99.99
2018-02-14T05:36:35.241Z,99.99
2018-02-14T05:37:57.195Z,99.99
2018-02-14T05:39:19.060Z,99.99
2018-02-14T05:40:40.982Z,99.99
2018-02-14T05:42:02.846Z,99.99
2018-02-14T05:43:24.702Z,99.99
2018-02-14T05:44:45.832Z,99.99
2018-02-14T05:46:07.782Z,99.99
2018-02-14T05:47:29.453Z,99.99
2018-02-14T05:48:51.614Z,99.99
2018-02-14T05:50:13.206Z,99.99
2018-02-14T05:51:34.632Z,99.99
2018-02-14T05:52:56.847Z,99.99
2018-02-14T05:54:18.502Z,99.99
2018-02-14T05:55:39.823Z,99.99
2018-02-14T05:57:01.945Z,99.99
2018-02-14T05:58:24.109Z,99.99
2018-02-14T05:59:46.163Z,99.99
2018-02-14T06:01:08.304Z,99.99
2018-02-14T06:02:29.894Z,99.99
2018-02-14T06:03:52.397Z,99.99
2018-02-14T06:05:14.263Z,99.99
2018-02-14T06:06:35.873Z,99.99
2018-02-14T06:07:58.067Z,99.99
2018-02-14T06:09:19.970Z,99.99
2018-02-14T06:10:41.654Z,99.99
2018-02-14T06:12:03.831Z,99.99
2018-02-14T06:13:25.157Z,99.99
2018-02-14T06:14:46.804Z,99.99
2018-02-14T06:16:08.706Z,99.99
2018-02-14T06:17:30.955Z,99.99
2018-02-14T06:18:52.567Z,99.99
2018-02-14T06:20:14.608Z,99.99
2018-02-14T06:21:36.213Z,99.99
2018-02-14T06:22:58.107Z,99.99
2018-02-14T06:24:20.004Z,99.99
2018-02-14T06:25:41.881Z,99.99
2018-02-14T06:27:03.744Z,99.99
2018-02-14T06:28:25.737Z,99.99
2018-02-14T06:29:47.970Z,99.99
2018-02-14T06:31:10.042Z,99.99
2018-02-14T06:32:31.631Z,99.99
2018-02-14T06:33:53.174Z,99.99
2018-02-14T06:35:15.355Z,99.99
2018-02-14T06:36:36.981Z,99.99
2018-02-14T06:37:59.102Z,99.99
2018-02-14T06:39:21.261Z,99.99
2018-02-14T06:40:43.222Z,99.99
2018-02-14T06:42:05.228Z,99.99
2018-02-14T06:43:27.111Z,99.99
2018-02-14T06:44:48.462Z,99.99
2018-02-14T06:46:10.596Z,99.99
2018-02-14T06:47:32.735Z,99.99
2018-02-14T06:48:54.582Z,99.99
2018-02-14T06:50:16.200Z,99.99
2018-02-14T06:51:38.105Z,99.99
2018-02-14T06:53:00.044Z,99.99
2018-02-14T06:54:21.929Z,99.99
2018-02-14T06:55:43.543Z,99.99
2018-02-14T06:57:05.690Z,99.99
2018-02-14T06:58:27.962Z,99.99
2018-02-14T06:59:49.582Z,99.99
2018-02-14T07:01:11.445Z,99.99
2018-02-14T07:02:33.433Z,99.99
2018-02-14T07:03:55.591Z,99.99
2018-02-14T07:05:17.232Z,99.99
2018-02-14T07:06:39.338Z,99.99
2018-02-14T07:08:01.094Z,99.99
2018-02-14T07:09:23.538Z,99.99
2018-02-14T07:10:45.121Z,99.99
2018-02-14T07:12:06.514Z,99.99
2018-02-14T07:13:28.155Z,99.99
2018-02-14T07:14:50.063Z,99.99
2018-02-14T07:16:11.955Z,99.99
2018-02-14T07:17:33.841Z,99.99
2018-02-14T07:18:55.723Z,99.99
2018-02-14T07:20:17.585Z,99.99
2018-02-14T07:21:39.451Z,99.99
2018-02-14T07:23:01.417Z,99.99
2018-02-14T07:24:23.285Z,99.99
2018-02-14T07:25:45.541Z,99.99
2018-02-14T07:27:07.742Z,99.99
2018-02-14T07:28:29.918Z,99.99
2018-02-14T07:29:52.019Z,99.99
2018-02-14T07:31:14.123Z,99.99
2018-02-14T07:32:36.002Z,99.99
2018-02-14T07:33:58.190Z,99.99
2018-02-14T07:35:20.325Z,99.99
2018-02-14T07:36:41.972Z,99.99
2018-02-14T07:38:03.566Z,99.99
2018-02-14T07:39:25.734Z,99.99
2018-02-14T07:40:47.792Z,99.99
2018-02-14T07:42:09.902Z,99.99
2018-02-14T07:43:31.772Z,99.99
2018-02-14T07:44:53.710Z,99.99
2018-02-14T07:46:15.091Z,99.99
2018-02-14T07:47:37.054Z,99.99
2018-02-14T07:48:58.670Z,99.99
2018-02-14T07:50:20.278Z,99.99
2018-02-14T07:51:42.263Z,99.99
2018-02-14T07:53:04.134Z,99.99
2018-02-14T07:54:26.074Z,99.99
2018-02-14T07:55:47.953Z,99.99
2018-02-14T07:57:09.819Z,99.99
2018-02-14T07:58:31.412Z,99.99
2018-02-14T07:59:53.550Z,99.99
2018-02-14T08:01:15.411Z,99.99
2018-02-14T08:02:37.586Z,99.99
2018-02-14T08:03:59.252Z,99.99
2018-02-14T08:05:20.593Z,99.99
2018-02-14T08:06:42.745Z,99.99
2018-02-14T08:08:04.866Z,99.99
2018-02-14T08:09:26.844Z,99.99
2018-02-14T08:10:48.755Z,99.99
2018-02-14T08:12:10.362Z,99.99
2018-02-14T08:13:32.492Z,99.99
2018-02-14T08:14:54.165Z,99.99
2018-02-14T08:16:15.792Z,99.99
2018-02-14T08:17:37.409Z,99.99
2018-02-14T08:18:59.549Z,99.99
2018-02-14T08:20:21.681Z,99.99
2018-02-14T08:21:43.611Z,99.99
2018-02-14T08:23:04.709Z,99.99
2018-02-14T08:24:26.375Z,99.99
2018-02-14T08:25:48.516Z,99.99
2018-02-14T08:27:10.402Z,99.99
2018-02-14T08:28:31.737Z,99.99
2018-02-14T08:29:53.647Z,99.99
2018-02-14T08:31:15.563Z,99.99
2018-02-14T08:32:37.029Z,99.99
2018-02-14T08:33:58.926Z,99.99
2018-02-14T08:35:20.907Z,99.99
2018-02-14T08:36:42.831Z,99.99
2018-02-14T08:38:04.727Z,99.99
2018-02-14T08:39:26.672Z,99.99
2018-02-14T08:40:48.821Z,99.99
2018-02-14T08:42:10.796Z,99.99
2018-02-14T08:43:32.930Z,99.99
2018-02-14T08:44:54.555Z,99.99
2018-02-14T08:46:16.474Z,99.99
2018-02-14T08:47:38.333Z,99.99
2018-02-14T08:48:59.798Z,99.99
2018-02-14T08:50:21.410Z,99.99
2018-02-14T08:51:43.045Z,99.99
2018-02-14T08:53:04.919Z,99.99
2018-02-14T08:54:26.586Z,99.99
2018-02-14T08:55:48.788Z,99.99
2018-02-14T08:57:11.075Z,99.99
2018-02-14T08:58:32.949Z,99.99
2018-02-14T08:59:54.815Z,99.99
2018-02-14T09:01:16.952Z,99.99
2018-02-14T09:02:38.857Z,99.99
2018-02-14T09:04:00.030Z,99.99
2018-02-14T09:05:21.653Z,99.99
2018-02-14T09:06:43.593Z,99.99
2018-02-14T09:08:05.523Z,99.99
2018-02-14T09:09:27.667Z,99.99
2018-02-14T09:10:49.948Z,99.99
2018-02-14T09:12:11.823Z,99.99
2018-02-14T09:14:57.111Z,99.99
2018-02-14T09:16:19.358Z,99.99
2018-02-14T09:17:40.938Z,99.99
2018-02-14T09:19:02.803Z,99.99
2018-02-14T09:20:24.390Z,99.99
2018-02-14T09:21:46.527Z,99.99
2018-02-14T09:23:08.124Z,99.99
2018-02-14T09:24:30.011Z,99.99
2018-02-14T09:25:51.893Z,99.99
2018-02-14T09:27:13.513Z,99.99
2018-02-14T09:28:35.774Z,99.99
2018-02-14T09:29:57.657Z,99.99
2018-02-14T09:31:19.809Z,99.99
2018-02-14T09:32:42.048Z,99.99
2018-02-14T09:34:04.193Z,99.99
2018-02-14T09:35:25.892Z,99.99
2018-02-14T09:36:47.781Z,99.99
2018-02-14T09:38:09.421Z,99.99
2018-02-14T09:39:30.781Z,99.99
2018-02-14T09:40:52.661Z,99.99
2018-02-14T09:42:14.523Z,99.99
2018-02-14T09:43:36.405Z,99.99
2018-02-14T09:44:58.303Z,99.99
2018-02-14T09:46:20.434Z,99.99
2018-02-14T09:47:42.311Z,99.99
2018-02-14T09:49:03.973Z,99.99
2018-02-14T09:50:26.115Z,99.99
2018-02-14T09:51:48.269Z,99.99
2018-02-14T09:53:10.368Z,99.99
2018-02-14T09:54:32.296Z,99.99
2018-02-14T09:55:54.541Z,99.99
2018-02-14T09:57:17.524Z,99.99
2018-02-14T09:58:39.969Z,99.99
2018-02-14T10:00:02.276Z,99.99
2018-02-14T10:01:24.537Z,99.99
2018-02-14T10:02:46.403Z,99.99
2018-02-14T10:04:08.026Z,99.99
2018-02-14T10:05:30.187Z,99.99
2018-02-14T10:06:51.835Z,99.99
2018-02-14T10:08:12.948Z,99.99
2018-02-14T10:09:34.634Z,99.99
2018-02-14T10:10:56.256Z,99.99
2018-02-14T10:12:18.163Z,99.99
2018-02-14T10:13:40.302Z,99.99
2018-02-14T10:15:01.920Z,99.99
2018-02-14T10:16:23.785Z,99.99
2018-02-14T10:17:45.648Z,99.99
2018-02-14T10:19:07.572Z,99.99
2018-02-14T10:20:29.424Z,99.99
2018-02-14T10:21:51.066Z,99.99
2018-02-14T10:23:12.990Z,99.99
2018-02-14T10:24:35.214Z,99.99
2018-02-14T10:25:56.832Z,99.99
2018-02-14T10:27:18.727Z,99.99
2018-02-14T10:28:40.583Z,99.99
2018-02-14T10:30:02.164Z,99.99
2018-02-14T10:31:24.323Z,99.99
2018-02-14T10:32:45.940Z,99.99
2018-02-14T10:34:07.561Z,99.99
2018-02-14T10:35:29.163Z,99.99
2018-02-14T10:36:51.039Z,99.99
2018-02-14T10:38:12.944Z,99.99
2018-02-14T10:39:35.069Z,99.99
2018-02-14T10:40:56.714Z,99.99
2018-02-14T10:42:18.588Z,99.99
2018-02-14T10:43:39.959Z,99.99
2018-02-14T10:45:02.090Z,99.99
2018-02-14T10:46:23.448Z,99.99
2018-02-14T10:47:45.343Z,99.99
2018-02-14T10:49:07.571Z,99.99
2018-02-14T10:50:29.003Z,99.99
2018-02-14T10:51:51.121Z,99.99
2018-02-14T10:53:13.249Z,99.99
2018-02-14T10:55:07.013Z,99.99
2018-02-14T10:56:29.177Z,99.99
2018-02-14T10:57:50.761Z,99.99
2018-02-14T10:59:12.621Z,99.99
2018-02-14T11:00:34.503Z,99.99
2018-02-14T11:01:56.822Z,99.99
2018-02-14T11:03:18.731Z,99.99
2018-02-14T11:04:40.858Z,99.99
2018-02-14T11:06:02.976Z,99.99
2018-02-14T11:07:25.331Z,99.99
2018-02-14T11:08:47.059Z,99.99
2018-02-14T11:10:08.959Z,99.99
2018-02-14T11:11:30.304Z,99.99
2018-02-14T11:12:52.166Z,99.99
2018-02-14T11:14:13.011Z,99.99
2018-02-14T11:15:34.961Z,99.99
2018-02-14T11:16:57.104Z,99.99
2018-02-14T11:18:18.690Z,99.99
2018-02-14T11:19:40.571Z,99.99
2018-02-14T11:21:02.724Z,99.99
2018-02-14T11:22:25.001Z,99.99
2018-02-14T11:23:46.944Z,99.99
2018-02-14T11:25:09.093Z,99.99
2018-02-14T11:26:30.767Z,99.99
2018-02-14T11:27:52.641Z,99.99
2018-02-14T11:29:14.246Z,99.99
2018-02-14T11:30:36.436Z,99.99
2018-02-14T11:31:58.315Z,99.99
2018-02-14T11:33:20.202Z,99.99
2018-02-14T11:34:41.813Z,99.99
2018-02-14T11:36:03.404Z,99.99
2018-02-14T11:37:25.259Z,99.99
2018-02-14T11:38:46.612Z,99.99
2018-02-14T11:40:08.208Z,99.99
2018-02-14T11:41:30.062Z,99.99
2018-02-14T11:42:51.672Z,99.99
2018-02-14T11:44:13.579Z,99.99
2018-02-14T11:45:35.211Z,99.99
2018-02-14T11:46:57.089Z,99.99
2018-02-14T11:48:19.025Z,99.72
2018-02-14T11:49:40.604Z,98.96
2018-02-14T11:51:02.751Z,99.53
2018-02-14T11:52:24.384Z,99.3
2018-02-14T11:53:46.501Z,99.3
2018-02-14T11:55:08.118Z,99.99
2018-02-14T11:56:30.049Z,99.3
2018-02-14T11:57:51.931Z,98.44
2018-02-14T11:59:14.090Z,98.44
2018-02-14T12:00:35.722Z,97.21
2018-02-14T12:01:57.892Z,97.02
2018-02-14T12:03:19.585Z,95.79
2018-02-14T12:04:41.722Z,94.56
2018-02-14T12:06:03.448Z,93.89
2018-02-14T12:07:25.731Z,94.18
2018-02-14T12:08:47.624Z,94.46
2018-02-14T12:10:09.605Z,94.84
2018-02-14T12:11:31.593Z,94.74
2018-02-14T12:12:53.713Z,94.27
2018-02-14T12:14:15.842Z,94.37
2018-02-14T12:15:38.026Z,94.56
2018-02-14T12:16:59.892Z,93.89
2018-02-14T12:18:21.834Z,93.61
2018-02-14T12:19:43.820Z,93.13
2018-02-14T12:21:05.732Z,93.32
2018-02-14T12:22:27.912Z,93.13
2018-02-14T12:23:50.036Z,93.51
2018-02-14T12:25:11.715Z,93.51
2018-02-14T12:26:33.220Z,93.23
2018-02-14T12:27:55.130Z,92.85
2018-02-14T12:29:17.287Z,92.18
2018-02-14T12:30:39.442Z,92.76
2018-02-14T12:32:01.353Z,92.47
2018-02-14T12:33:23.597Z,91.99
2018-02-14T12:34:45.482Z,93.23
2018-02-14T12:36:07.394Z,93.51
2018-02-14T12:37:29.596Z,93.61
2018-02-14T12:38:51.724Z,94.08
2018-02-14T12:40:13.135Z,92.76
2018-02-14T12:41:35.276Z,92.18
2018-02-14T12:42:57.188Z,91.52
2018-02-14T12:44:19.315Z,90.57
2018-02-14T12:45:41.201Z,90.86
2018-02-14T12:47:02.869Z,90.86
2018-02-14T12:48:24.758Z,91.99
2018-02-14T12:49:46.380Z,91.24
2018-02-14T12:51:08.255Z,90.95
2018-02-14T12:52:30.258Z,90.86
2018-02-14T12:53:51.903Z,91.52
2018-02-14T12:55:14.045Z,90.86
2018-02-14T12:56:35.972Z,90.95
2018-02-14T12:57:57.597Z,90.76
2018-02-14T12:59:19.886Z,91.52
2018-02-14T13:00:41.507Z,91.61
2018-02-14T13:02:03.388Z,90.95
2018-02-14T13:03:25.539Z,90.95
2018-02-14T13:04:47.741Z,90.76
2018-02-14T13:06:09.452Z,91.05
2018-02-14T13:07:31.728Z,90.29
2018-02-14T13:08:53.162Z,90.1
2018-02-14T13:10:15.312Z,90.1
2018-02-14T13:11:37.235Z,90.86
2018-02-14T13:12:58.988Z,90.19
2018-02-14T13:14:20.330Z,90.48
2018-02-14T13:15:42.211Z,89.91
2018-02-14T13:17:04.083Z,89.15
2018-02-14T13:18:25.988Z,89.62
2018-02-14T13:19:48.152Z,89.72
2018-02-14T13:21:10.024Z,89.72
2018-02-14T13:22:31.654Z,89.91
2018-02-14T13:23:53.298Z,90.38
2018-02-14T13:25:15.171Z,90.38
2018-02-14T13:26:36.816Z,90.95
2018-02-14T13:27:58.422Z,90.67
2018-02-14T13:29:20.059Z,91.61
2018-02-14T13:30:42.272Z,91.33
2018-02-14T13:32:04.508Z,91.42
2018-02-14T13:33:26.650Z,91.33
2018-02-14T13:34:48.548Z,90.95
2018-02-14T13:36:10.191Z,90.86
2018-02-14T13:37:32.656Z,90.38
2018-02-14T13:38:54.616Z,90.86
2018-02-14T13:40:16.514Z,90.67
2018-02-14T13:41:37.933Z,91.05
2018-02-14T13:42:59.893Z,91.14
2018-02-14T13:44:21.772Z,91.14
2018-02-14T13:45:43.920Z,92.28
2018-02-14T13:47:05.592Z,91.42
2018-02-14T13:48:27.722Z,91.24
2018-02-14T13:49:49.328Z,91.9
2018-02-14T13:51:11.562Z,91.42
2018-02-14T13:52:33.815Z,90.95
2018-02-14T13:53:55.832Z,92.18
2018-02-14T13:55:18.049Z,92.18
2018-02-14T13:56:40.251Z,91.99
2018-02-14T13:58:02.122Z,91.05
2018-02-14T13:59:24.345Z,90.95
2018-02-14T14:00:46.496Z,90.95
2018-02-14T14:02:08.627Z,91.05
2018-02-14T14:03:30.540Z,90.95
2018-02-14T14:04:52.583Z,90.48
2018-02-14T14:06:14.442Z,90.76
2018-02-14T14:07:36.314Z,91.05
2018-02-14T14:08:58.222Z,91.42
2018-02-14T14:10:20.376Z,91.24
2018-02-14T14:11:42.581Z,90.67
2018-02-14T14:13:04.199Z,90.67
2018-02-14T14:14:26.142Z,90.76
2018-02-14T14:15:48.072Z,90.95
2018-02-14T14:17:09.803Z,90.86
2018-02-14T14:18:31.692Z,90.19
2018-02-14T14:19:53.852Z,90.19
2018-02-14T14:21:16.140Z,90.86
2018-02-14T14:22:38.324Z,91.05
2018-02-14T14:24:00.465Z,90.95
2018-02-14T14:25:22.116Z,90.67
2018-02-14T14:26:44.053Z,90.76
2018-02-14T14:28:06.205Z,91.24
2018-02-14T14:29:28.104Z,91.8
2018-02-14T14:30:50.382Z,91.42
2018-02-14T14:32:12.108Z,91.05
2018-02-14T14:33:34.253Z,91.8
2018-02-14T14:34:56.136Z,91.24
2018-02-14T14:36:18.284Z,91.24
2018-02-14T14:37:40.729Z,90.67
2018-02-14T14:39:02.676Z,90.76
2018-02-14T14:40:24.352Z,91.05
2018-02-14T14:41:46.254Z,90.86
2018-02-14T14:43:07.913Z,91.52
2018-02-14T14:44:30.104Z,91.24
2018-02-14T14:45:52.023Z,91.33
2018-02-14T14:47:13.643Z,90.76
2018-02-14T14:48:35.542Z,91.52
2018-02-14T14:49:57.433Z,90.95
2018-02-14T14:51:19.573Z,91.52
2018-02-14T14:52:41.722Z,91.99
2018-02-14T14:54:03.864Z,92.18
2018-02-14T14:55:25.725Z,91.99
2018-02-14T14:56:47.610Z,91.61
2018-02-14T14:58:09.245Z,91.99
2018-02-14T14:59:31.126Z,92.18
2018-02-14T15:00:53.086Z,91.8
2018-02-14T15:02:14.964Z,91.8
2018-02-14T15:03:36.867Z,91.05
2018-02-14T15:04:58.806Z,91.8
2018-02-14T15:06:20.831Z,92.57
2018-02-14T15:07:42.834Z,91.8
2018-02-14T15:09:04.448Z,92.76
2018-02-14T15:10:26.360Z,92.47
2018-02-14T15:11:48.253Z,92.85
2018-02-14T15:13:09.353Z,92.94
2018-02-14T15:14:30.991Z,93.7
2018-02-14T15:15:53.159Z,93.7
2018-02-14T15:17:15.334Z,94.08
2018-02-14T15:18:37.474Z,94.18
2018-02-14T15:19:59.084Z,94.27
2018-02-14T15:21:21.337Z,93.84
2018-02-14T15:22:43.214Z,94.23
2018-02-14T15:24:05.384Z,93.84
2018-02-14T15:25:27.541Z,93.75
2018-02-14T15:26:49.759Z,93.56
2018-02-14T15:28:12.029Z,94.04
2018-02-14T15:29:33.933Z,94.04
2018-02-14T15:30:55.564Z,93.94
2018-02-14T15:32:17.717Z,94.23
2018-02-14T15:33:39.580Z,94.42
2018-02-14T15:35:01.726Z,93.84
2018-02-14T15:36:23.889Z,94.42
2018-02-14T15:37:45.807Z,94.23
2018-02-14T15:39:07.996Z,94.04
2018-02-14T15:40:30.254Z,94.42
2018-02-14T15:41:52.427Z,93.84
2018-02-14T15:43:14.387Z,94.6
2018-02-14T15:44:36.284Z,94.6
2018-02-14T15:45:58.213Z,94.7
2018-02-14T15:47:20.097Z,94.32
2018-02-14T15:48:41.871Z,95.17
2018-02-14T15:50:03.788Z,95.84
2018-02-14T15:51:25.749Z,94.89
2018-02-14T15:52:47.903Z,95.55
2018-02-14T15:54:10.054Z,96.03
2018-02-14T15:55:32.226Z,95.74
2018-02-14T15:56:53.859Z,95.6
2018-02-14T15:58:15.509Z,95.36
2018-02-14T15:59:37.847Z,95.31
2018-02-14T16:00:59.986Z,95.6
2018-02-14T16:02:21.886Z,95.22
2018-02-14T16:03:43.541Z,95.5
2018-02-14T16:05:05.798Z,95.69
2018-02-14T16:06:27.964Z,95.5
2018-02-14T16:07:49.866Z,95.88
2018-02-14T16:09:12.095Z,95.6
2018-02-14T16:10:34.355Z,96.07
2018-02-14T16:11:56.517Z,96.36
2018-02-14T16:13:18.314Z,96.45
2018-02-14T16:14:40.494Z,96.45
2018-02-14T16:16:02.548Z,96.92
2018-02-14T16:17:24.469Z,97.02
2018-02-14T16:18:46.876Z,96.83
2018-02-14T16:20:09.045Z,97.49
2018-02-14T16:21:30.960Z,97.78
2018-02-14T16:22:53.136Z,97.59
2018-02-14T16:24:15.063Z,97.49
2018-02-14T16:25:37.232Z,97.78
2018-02-14T16:26:59.257Z,97.11
2018-02-14T16:28:21.525Z,97.49
2018-02-14T16:29:43.744Z,97.11
2018-02-14T16:31:05.891Z,97.68
2018-02-14T16:32:28.106Z,97.06
2018-02-14T16:33:50.100Z,97.11
2018-02-14T16:35:12.244Z,97.35
2018-02-14T16:36:34.137Z,97.44
2018-02-14T16:37:56.109Z,97.73
2018-02-14T16:39:18.353Z,97.92
2018-02-14T16:40:40.599Z,98.49
2018-02-14T16:42:02.800Z,97.92
2018-02-14T16:43:24.957Z,98.3
2018-02-14T16:44:47.214Z,98.77
2018-02-14T16:46:09.354Z,99.05
2018-02-14T16:47:31.502Z,99.33
2018-02-14T16:48:53.548Z,99.33
2018-02-14T16:50:15.447Z,99.81
2018-02-14T16:51:37.129Z,99.71
2018-02-14T16:52:59.085Z,99.99
2018-02-14T16:54:21.418Z,99.99
2018-02-14T16:55:43.311Z,99.99
2018-02-14T16:57:05.718Z,99.99
2018-02-14T16:58:27.913Z,99.99
2018-02-14T16:59:50.076Z,99.99
2018-02-14T17:01:12.305Z,99.99
2018-02-14T17:02:34.460Z,99.99
2018-02-14T17:03:56.604Z,99.99
2018-02-14T17:05:18.762Z,99.99
2018-02-14T17:06:40.771Z,99.99
2018-02-14T17:08:02.976Z,99.99
2018-02-14T17:09:24.861Z,99.99
2018-02-14T17:10:46.213Z,99.99
2018-02-14T17:12:08.490Z,99.99
2018-02-14T17:13:30.109Z,99.99
2018-02-14T17:14:51.968Z,99.99
2018-02-14T17:16:14.145Z,99.99
2018-02-14T17:17:36.295Z,99.99
2018-02-14T17:18:57.919Z,99.99
2018-02-14T17:20:19.881Z,99.99
2018-02-14T17:21:42.049Z,99.99
2018-02-14T17:23:04.264Z,99.99
2018-02-14T17:24:26.445Z,99.99
2018-02-14T17:25:48.596Z,99.99
2018-02-14T17:27:10.733Z,99.99
2018-02-14T17:28:32.903Z,99.99
2018-02-14T17:29:55.102Z,99.99
2018-02-14T17:31:17.357Z,99.99
2018-02-14T17:32:39.550Z,99.99
2018-02-14T17:34:01.705Z,99.99
2018-02-14T17:35:23.695Z,99.99
2018-02-14T17:36:45.927Z,99.99
2018-02-14T17:38:08.147Z,99.99